Time;durP1;ratioP1;P1;durP2;ratioP2;P2;SDS_P1;SDS_P2;PMS_P1;PMS_P2;Temp;Humidity;BMP_temperature;BMP_pressure;BME280_temperature;BME280_humidity;BME280_pressure;Samples;Min_cycle;Max_cycle;Signal;HPM_P1;HPM_P2
2022/08/27 00:00:21;;;;;;;6.38;1.77;;;;;;;;;;5080361;28;20041;-81
2022/08/27 00:02:47;;;;;;;8.68;1.58;;;;;;;;;;5079936;28;20067;-80
2022/08/27 00:05:15;;;;;;;8.30;1.65;;;;;;;;;;5070019;28;20048;-79
2022/08/27 00:07:42;;;;;;;7.68;1.80;;;;;;;;;;5069747;28;20036;-80
2022/08/27 00:10:10;;;;;;;7.00;1.60;;;;;;;;;;5079325;28;20071;-80
2022/08/27 00:12:37;;;;;;;9.25;1.80;;;;;;;;;;5076476;28;20549;-80
2022/08/27 00:15:05;;;;;;;5.97;1.80;;;;;;;;;;5068076;28;20040;-80
2022/08/27 00:17:31;;;;;;;10.60;1.58;;;;;;;;;;5064165;28;20071;-80
2022/08/27 00:19:57;;;;;;;7.57;1.55;;;;;;;;;;5054886;28;20053;-80
2022/08/27 00:22:23;;;;;;;10.38;2.03;;;;;;;;;;5041111;28;20044;-80
2022/08/27 00:24:49;;;;;;;6.63;1.55;;;;;;;;;;5063281;28;20132;-79
2022/08/27 00:27:15;;;;;;;5.60;1.50;;;;;;;;;;5063480;28;20125;-80
2022/08/27 00:29:41;;;;;;;6.93;1.83;;;;;;;;;;5072761;28;20052;-79
2022/08/27 00:32:07;;;;;;;8.75;1.65;;;;;;;;;;5044400;28;20048;-79
2022/08/27 00:34:34;;;;;;;8.18;1.33;;;;;;;;;;5063678;28;20051;-80
2022/08/27 00:37:02;;;;;;;7.07;1.55;;;;;;;;;;5060745;28;20044;-79
2022/08/27 00:39:28;;;;;;;7.22;1.77;;;;;;;;;;5059586;28;20056;-79
2022/08/27 00:41:54;;;;;;;7.10;1.60;;;;;;;;;;5074026;28;20063;-79
2022/08/27 00:44:20;;;;;;;8.48;1.80;;;;;;;;;;5067734;28;20045;-80
2022/08/27 00:46:52;;;;;;;6.35;1.33;;;;;;;;;;5048055;28;20040;-80
2022/08/27 00:49:40;;;;;;;7.97;1.67;;;;;;;;;;5041559;28;20399;-80
2022/08/27 00:52:08;;;;;;;6.78;1.60;;;;;;;;;;5058108;28;20045;-79
2022/08/27 00:54:34;;;;;;;7.43;1.73;;;;;;;;;;5059330;28;20083;-80
2022/08/27 00:57:00;;;;;;;7.60;1.80;;;;;;;;;;5058364;28;20108;-80
2022/08/27 00:59:31;;;;;;;7.90;2.00;;;;;;;;;;5061338;28;20064;-80
2022/08/27 01:04:44;;;;;;;9.18;1.75;;;;;;;;;;5053101;28;20045;-79
2022/08/27 01:07:10;;;;;;;8.10;1.35;;;;;;;;;;5041752;28;20045;-79
2022/08/27 01:09:37;;;;;;;7.47;1.88;;;;;;;;;;5046411;28;20523;-79
2022/08/27 01:12:04;;;;;;;11.27;1.90;;;;;;;;;;5070891;28;20052;-79
2022/08/27 01:14:30;;;;;;;7.18;1.92;;;;;;;;;;5077770;28;20048;-80
2022/08/27 01:16:57;;;;;;;6.60;1.67;;;;;;;;;;5079388;28;20541;-79
2022/08/27 01:19:34;;;;;;;7.25;1.80;;;;;;;;;;5064192;28;20474;-79
2022/08/27 01:22:03;;;;;;;7.18;1.70;;;;;;;;;;5084192;28;20041;-80
2022/08/27 01:24:43;;;;;;;9.07;2.10;;;;;;;;;;5078288;28;20052;-80
2022/08/27 01:27:12;;;;;;;8.98;1.80;;;;;;;;;;5079029;28;20070;-80
2022/08/27 01:29:38;;;;;;;6.32;1.38;;;;;;;;;;5080823;28;20104;-80
2022/08/27 01:32:09;;;;;;;8.10;1.40;;;;;;;;;;5060915;28;20449;-80
2022/08/27 01:34:36;;;;;;;7.93;1.60;;;;;;;;;;5079971;28;20033;-79
2022/08/27 01:37:03;;;;;;;7.80;1.70;;;;;;;;;;5060836;28;20058;-79
2022/08/27 01:39:29;;;;;;;9.43;1.85;;;;;;;;;;5062102;28;20053;-79
2022/08/27 01:42:01;;;;;;;9.25;1.65;;;;;;;;;;5057025;28;20041;-80
2022/08/27 01:44:27;;;;;;;8.57;1.40;;;;;;;;;;5078600;28;20551;-80
2022/08/27 01:46:53;;;;;;;9.90;1.83;;;;;;;;;;5056881;28;20131;-80
2022/08/27 01:49:19;;;;;;;10.02;1.70;;;;;;;;;;5076033;28;20119;-80
2022/08/27 01:51:45;;;;;;;8.57;1.40;;;;;;;;;;5078399;28;20051;-80
2022/08/27 01:54:11;;;;;;;8.57;1.77;;;;;;;;;;5058875;28;20032;-80
2022/08/27 01:56:37;;;;;;;7.45;1.70;;;;;;;;;;5059263;28;20560;-80
2022/08/27 01:59:03;;;;;;;6.22;1.55;;;;;;;;;;5062127;28;20041;-80
2022/08/27 02:01:29;;;;;;;7.25;1.40;;;;;;;;;;5067092;28;20415;-80
2022/08/27 02:03:55;;;;;;;5.50;1.40;;;;;;;;;;5072157;28;20045;-80
2022/08/27 02:06:21;;;;;;;5.28;1.33;;;;;;;;;;5078331;28;20041;-80
2022/08/27 02:08:47;;;;;;;8.05;1.48;;;;;;;;;;5078137;28;20048;-80
2022/08/27 02:11:13;;;;;;;6.65;1.67;;;;;;;;;;5078397;28;20055;-80
2022/08/27 02:13:39;;;;;;;6.20;1.38;;;;;;;;;;5078326;28;20056;-80
2022/08/27 02:16:06;;;;;;;7.57;1.48;;;;;;;;;;5077547;28;20049;-80
2022/08/27 02:18:32;;;;;;;5.70;1.60;;;;;;;;;;5078555;28;20513;-80
2022/08/27 02:20:58;;;;;;;7.10;1.50;;;;;;;;;;5041235;28;20048;-80
2022/08/27 02:23:24;;;;;;;7.80;1.85;;;;;;;;;;5078046;28;20124;-79
2022/08/27 02:25:50;;;;;;;7.35;1.60;;;;;;;;;;5052611;28;20104;-80
2022/08/27 02:28:16;;;;;;;6.72;1.70;;;;;;;;;;5040623;28;20410;-80
2022/08/27 02:30:42;;;;;;;8.70;1.70;;;;;;;;;;5059562;28;20402;-80
2022/08/27 02:33:08;;;;;;;6.22;1.60;;;;;;;;;;5061199;28;20063;-80
2022/08/27 02:35:37;;;;;;;8.13;2.33;;;;;;;;;;5076127;28;20047;-80
2022/08/27 02:38:03;;;;;;;5.75;1.45;;;;;;;;;;5076521;28;20100;-80
2022/08/27 02:40:30;;;;;;;8.10;1.90;;;;;;;;;;5056262;28;20064;-78
2022/08/27 02:42:56;;;;;;;6.97;1.60;;;;;;;;;;5058201;28;20048;-80
2022/08/27 02:45:22;;;;;;;8.27;1.63;;;;;;;;;;5078387;28;20101;-80
2022/08/27 02:47:48;;;;;;;6.45;1.70;;;;;;;;;;5080052;28;20040;-81
2022/08/27 02:50:14;;;;;;;7.85;1.90;;;;;;;;;;5080365;28;20051;-80
2022/08/27 02:52:40;;;;;;;8.23;1.88;;;;;;;;;;5080663;28;20124;-78
2022/08/27 02:55:07;;;;;;;7.68;1.80;;;;;;;;;;5078669;28;20421;-80
2022/08/27 02:57:33;;;;;;;8.90;1.98;;;;;;;;;;5078678;28;20045;-79
2022/08/27 02:59:59;;;;;;;7.10;1.55;;;;;;;;;;5079227;28;20429;-79
2022/08/27 03:02:26;;;;;;;8.50;1.70;;;;;;;;;;5079892;28;20561;-79
2022/08/27 03:04:52;;;;;;;6.72;1.55;;;;;;;;;;5059658;28;20176;-79
2022/08/27 03:07:18;;;;;;;9.45;2.10;;;;;;;;;;5076735;28;20454;-80
2022/08/27 03:09:44;;;;;;;7.60;1.67;;;;;;;;;;5079666;28;20068;-80
2022/08/27 03:12:11;;;;;;;7.50;1.70;;;;;;;;;;5080654;28;20036;-80
2022/08/27 03:14:37;;;;;;;9.75;2.05;;;;;;;;;;5076571;28;20059;-79
2022/08/27 03:19:49;;;;;;;7.78;2.10;;;;;;;;;;5075181;28;20044;-79
2022/08/27 03:22:15;;;;;;;10.27;2.55;;;;;;;;;;5080478;28;20080;-80
2022/08/27 03:24:41;;;;;;;8.57;2.35;;;;;;;;;;5079121;28;20063;-80
2022/08/27 03:27:08;;;;;;;7.57;2.30;;;;;;;;;;5065479;28;20067;-80
2022/08/27 03:29:35;;;;;;;6.55;1.95;;;;;;;;;;5062470;28;20119;-80
2022/08/27 03:32:01;;;;;;;6.70;2.10;;;;;;;;;;5079037;28;20062;-79
2022/08/27 03:34:27;;;;;;;6.95;1.95;;;;;;;;;;5061807;28;20037;-79
2022/08/27 03:36:53;;;;;;;8.02;2.42;;;;;;;;;;5076309;28;20041;-79
2022/08/27 03:39:19;;;;;;;8.82;2.15;;;;;;;;;;5065810;28;20048;-80
2022/08/27 03:41:45;;;;;;;7.63;2.08;;;;;;;;;;5078841;28;20048;-79
2022/08/27 03:44:11;;;;;;;6.03;2.00;;;;;;;;;;5077791;28;20052;-79
2022/08/27 03:46:37;;;;;;;6.95;1.98;;;;;;;;;;5071879;28;20511;-79
2022/08/27 03:49:03;;;;;;;6.68;1.90;;;;;;;;;;5077450;28;20410;-79
2022/08/27 03:51:29;;;;;;;6.25;1.90;;;;;;;;;;5080209;28;20040;-79
2022/08/27 03:53:55;;;;;;;9.70;2.00;;;;;;;;;;5076118;28;20051;-79
2022/08/27 03:56:22;;;;;;;10.38;2.30;;;;;;;;;;5074039;28;20032;-80
2022/08/27 03:58:48;;;;;;;5.15;1.65;;;;;;;;;;5075770;28;20044;-80
2022/08/27 04:01:15;;;;;;;7.10;1.90;;;;;;;;;;5079894;28;20124;-80
2022/08/27 04:03:41;;;;;;;7.10;1.85;;;;;;;;;;5077586;28;20101;-80
2022/08/27 04:06:08;;;;;;;7.65;2.15;;;;;;;;;;5079189;28;20044;-80
2022/08/27 04:08:34;;;;;;;7.70;1.88;;;;;;;;;;5077967;28;20044;-79
2022/08/27 04:11:00;;;;;;;8.60;1.60;;;;;;;;;;5080403;28;20113;-79
2022/08/27 04:13:26;;;;;;;6.03;1.60;;;;;;;;;;5055433;28;20053;-79
2022/08/27 04:15:54;;;;;;;8.82;2.08;;;;;;;;;;5076610;28;20417;-79
2022/08/27 04:18:20;;;;;;;5.88;1.83;;;;;;;;;;5062026;28;20080;-79
2022/08/27 04:20:47;;;;;;;5.65;1.75;;;;;;;;;;5081271;28;20041;-79
2022/08/27 04:23:13;;;;;;;8.00;1.88;;;;;;;;;;5078492;28;20043;-78
2022/08/27 04:25:40;;;;;;;6.93;1.88;;;;;;;;;;5079334;28;20417;-79
2022/08/27 04:28:06;;;;;;;7.00;1.70;;;;;;;;;;5073396;28;20478;-79
2022/08/27 04:30:32;;;;;;;7.28;1.83;;;;;;;;;;5080875;28;20047;-79
2022/08/27 04:32:59;;;;;;;6.95;2.03;;;;;;;;;;5077123;28;20530;-78
2022/08/27 04:35:25;;;;;;;8.55;2.28;;;;;;;;;;5077423;28;20045;-78
2022/08/27 04:37:51;;;;;;;9.20;2.38;;;;;;;;;;5077559;28;20052;-79
2022/08/27 04:40:17;;;;;;;10.35;1.92;;;;;;;;;;5078817;28;20098;-79
2022/08/27 04:42:43;;;;;;;7.28;2.08;;;;;;;;;;5075781;28;20211;-79
2022/08/27 04:45:09;;;;;;;10.38;2.50;;;;;;;;;;5059675;28;20047;-78
2022/08/27 04:47:36;;;;;;;7.60;2.08;;;;;;;;;;5057142;28;20044;-79
2022/08/27 04:50:02;;;;;;;10.10;2.25;;;;;;;;;;5075281;28;20040;-79
2022/08/27 04:52:28;;;;;;;11.32;2.25;;;;;;;;;;5070675;28;20463;-80
2022/08/27 04:54:54;;;;;;;8.15;1.95;;;;;;;;;;5077644;28;20041;-79
2022/08/27 04:57:20;;;;;;;6.90;2.20;;;;;;;;;;5058990;28;20044;-80
2022/08/27 04:59:46;;;;;;;9.15;2.30;;;;;;;;;;5077943;28;20100;-80
2022/08/27 05:02:12;;;;;;;6.82;2.00;;;;;;;;;;5077463;28;20047;-81
2022/08/27 05:04:39;;;;;;;8.40;1.85;;;;;;;;;;5059063;28;20056;-80
2022/08/27 05:07:06;;;;;;;7.72;2.38;;;;;;;;;;5055527;28;20124;-80
2022/08/27 05:09:33;;;;;;;8.45;1.98;;;;;;;;;;5065192;28;20040;-81
2022/08/27 05:12:00;;;;;;;9.00;2.28;;;;;;;;;;5075338;28;20053;-81
2022/08/27 05:14:31;;;;;;;7.32;1.90;;;;;;;;;;5074216;28;20411;-80
2022/08/27 05:16:58;;;;;;;7.68;1.95;;;;;;;;;;5076951;28;20041;-80
2022/08/27 05:19:24;;;;;;;7.32;1.92;;;;;;;;;;5078330;28;20059;-81
2022/08/27 05:21:54;;;;;;;8.55;1.90;;;;;;;;;;5058401;28;20036;-80
2022/08/27 05:24:21;;;;;;;7.97;1.90;;;;;;;;;;5078739;28;20047;-80
2022/08/27 05:26:47;;;;;;;8.63;1.90;;;;;;;;;;5074667;28;20071;-80
2022/08/27 05:29:13;;;;;;;7.20;2.03;;;;;;;;;;5077755;28;20045;-80
2022/08/27 05:31:40;;;;;;;7.38;1.88;;;;;;;;;;5076751;28;20524;-80
2022/08/27 05:34:06;;;;;;;7.75;1.70;;;;;;;;;;5076749;28;20044;-80
2022/08/27 05:36:33;;;;;;;6.45;2.08;;;;;;;;;;5061301;28;20052;-79
2022/08/27 05:39:00;;;;;;;8.40;2.10;;;;;;;;;;5059062;28;20048;-79
2022/08/27 05:41:28;;;;;;;7.60;2.28;;;;;;;;;;5059324;28;20059;-80
2022/08/27 05:43:55;;;;;;;11.48;3.78;;;;;;;;;;5076374;28;20453;-80
2022/08/27 05:46:22;;;;;;;12.25;2.88;;;;;;;;;;5074891;28;20040;-80
2022/08/27 05:48:49;;;;;;;8.73;2.20;;;;;;;;;;5077793;28;20471;-80
2022/08/27 05:51:18;;;;;;;7.88;2.10;;;;;;;;;;5071930;28;20037;-81
2022/08/27 05:53:44;;;;;;;6.63;1.90;;;;;;;;;;5076206;28;20041;-80
2022/08/27 05:56:13;;;;;;;6.57;1.60;;;;;;;;;;5079731;28;20055;-80
2022/08/27 06:01:25;;;;;;;6.35;1.95;;;;;;;;;;5079576;28;20048;-81
2022/08/27 06:03:53;;;;;;;7.85;2.25;;;;;;;;;;5084639;28;20089;-80
2022/08/27 06:06:19;;;;;;;9.77;1.88;;;;;;;;;;5085188;28;20131;-80
2022/08/27 06:08:45;;;;;;;7.45;2.10;;;;;;;;;;5056856;28;20045;-80
2022/08/27 06:11:11;;;;;;;8.27;2.10;;;;;;;;;;5059667;28;20040;-81
2022/08/27 06:13:37;;;;;;;7.68;2.10;;;;;;;;;;5081477;28;20114;-82
2022/08/27 06:16:05;;;;;;;7.53;1.65;;;;;;;;;;5081579;28;20044;-82
2022/08/27 06:18:32;;;;;;;6.05;1.70;;;;;;;;;;5087636;28;20466;-82
2022/08/27 06:20:58;;;;;;;7.63;1.75;;;;;;;;;;5088034;28;20097;-81
2022/08/27 06:23:24;;;;;;;6.68;1.98;;;;;;;;;;5088578;28;20062;-81
2022/08/27 06:25:50;;;;;;;7.57;1.90;;;;;;;;;;5055575;28;20079;-80
2022/08/27 06:28:20;;;;;;;7.97;2.00;;;;;;;;;;5089879;28;20110;-80
2022/08/27 06:30:46;;;;;;;8.70;1.80;;;;;;;;;;5071848;28;20041;-81
2022/08/27 06:33:12;;;;;;;8.98;2.10;;;;;;;;;;5082118;28;20088;-80
2022/08/27 06:35:38;;;;;;;8.95;1.98;;;;;;;;;;5088137;28;20084;-81
2022/08/27 06:38:04;;;;;;;7.38;1.85;;;;;;;;;;5091373;28;20072;-80
2022/08/27 06:40:30;;;;;;;7.40;1.85;;;;;;;;;;5091330;28;20044;-80
2022/08/27 06:42:56;;;;;;;8.57;1.70;;;;;;;;;;5086401;28;20052;-80
2022/08/27 06:45:22;;;;;;;10.23;2.00;;;;;;;;;;5086881;28;20047;-80
2022/08/27 06:47:48;;;;;;;7.88;2.05;;;;;;;;;;5091626;28;20041;-81
2022/08/27 06:50:14;;;;;;;7.32;2.15;;;;;;;;;;5092837;28;20051;-81
2022/08/27 06:52:40;;;;;;;7.80;1.50;;;;;;;;;;5082650;28;20067;-81
2022/08/27 06:55:06;;;;;;;7.68;1.80;;;;;;;;;;5092375;28;20045;-81
2022/08/27 06:57:32;;;;;;;7.63;1.67;;;;;;;;;;5094194;28;20040;-81
2022/08/27 06:59:59;;;;;;;9.10;2.30;;;;;;;;;;5072901;28;20133;-81
2022/08/27 07:02:25;;;;;;;8.73;1.55;;;;;;;;;;5073689;28;20096;-81
2022/08/27 07:04:52;;;;;;;7.85;1.70;;;;;;;;;;5090726;28;20040;-81
2022/08/27 07:07:18;;;;;;;6.50;1.60;;;;;;;;;;5074447;28;20154;-82
2022/08/27 07:09:44;;;;;;;6.50;1.50;;;;;;;;;;5075666;28;20044;-82
2022/08/27 07:12:11;;;;;;;9.88;1.85;;;;;;;;;;5092080;28;20028;-83
2022/08/27 07:14:37;;;;;;;9.35;1.88;;;;;;;;;;5090963;28;20060;-79
2022/08/27 07:17:03;;;;;;;6.93;1.60;;;;;;;;;;5073832;28;20052;-80
2022/08/27 07:19:31;;;;;;;10.55;1.92;;;;;;;;;;5091910;28;20059;-81
2022/08/27 07:22:00;;;;;;;9.70;1.55;;;;;;;;;;5091645;28;20104;-79
2022/08/27 07:24:26;;;;;;;7.40;1.73;;;;;;;;;;5079871;28;20048;-79
2022/08/27 07:26:58;;;;;;;8.40;1.70;;;;;;;;;;5089723;28;20044;-81
2022/08/27 07:29:24;;;;;;;7.55;1.65;;;;;;;;;;5074123;28;20055;-80
2022/08/27 07:31:50;;;;;;;8.70;2.30;;;;;;;;;;5074436;28;20044;-81
2022/08/27 07:34:16;;;;;;;7.90;2.00;;;;;;;;;;5074114;28;20055;-79
2022/08/27 07:36:42;;;;;;;6.80;1.40;;;;;;;;;;5070456;28;20044;-80
2022/08/27 07:39:09;;;;;;;7.72;1.80;;;;;;;;;;5064843;28;20045;-79
2022/08/27 07:44:24;;;;;;;7.25;1.95;;;;;;;;;;5086431;28;20056;-81
2022/08/27 07:44:24;;;;;;;8.13;1.60;;;;;;;;;;5087759;28;20048;-80
2022/08/27 07:46:50;;;;;;;7.03;1.70;;;;;;;;;;5087413;28;20051;-81
2022/08/27 07:49:17;;;;;;;8.88;2.10;;;;;;;;;;5092529;28;20128;-79
2022/08/27 07:51:44;;;;;;;7.72;1.80;;;;;;;;;;5091680;28;20067;-80
2022/08/27 07:54:10;;;;;;;7.65;1.60;;;;;;;;;;5087460;28;20469;-80
2022/08/27 07:56:36;;;;;;;7.47;1.50;;;;;;;;;;5092839;28;20104;-81
2022/08/27 07:59:02;;;;;;;7.07;1.75;;;;;;;;;;5092670;28;20063;-81
2022/08/27 08:01:29;;;;;;;9.38;1.70;;;;;;;;;;5087987;28;20044;-81
2022/08/27 08:03:55;;;;;;;8.52;1.90;;;;;;;;;;5085695;28;20041;-81
2022/08/27 08:06:21;;;;;;;8.88;1.88;;;;;;;;;;5085944;28;21017;-80
2022/08/27 08:08:48;;;;;;;8.57;1.92;;;;;;;;;;5079615;28;20071;-80
2022/08/27 08:11:15;;;;;;;9.15;1.70;;;;;;;;;;5065214;28;20072;-79
2022/08/27 08:13:41;;;;;;;8.10;1.60;;;;;;;;;;5072303;28;20041;-80
2022/08/27 08:16:07;;;;;;;7.85;1.90;;;;;;;;;;5055988;28;20044;-80
2022/08/27 08:18:34;;;;;;;8.90;1.52;;;;;;;;;;5087945;28;20147;-79
2022/08/27 08:21:05;;;;;;;9.60;1.67;;;;;;;;;;5065445;28;20662;-80
2022/08/27 08:23:32;;;;;;;7.95;1.75;;;;;;;;;;5087630;28;20054;-81
2022/08/27 08:25:58;;;;;;;12.15;2.22;;;;;;;;;;5084841;28;20044;-80
2022/08/27 08:28:26;;;;;;;7.07;1.50;;;;;;;;;;5089431;28;20036;-80
2022/08/27 08:30:53;;;;;;;11.48;1.83;;;;;;;;;;5072003;28;20041;-80
2022/08/27 08:33:19;;;;;;;9.50;1.85;;;;;;;;;;5087402;28;20053;-81
2022/08/27 08:35:47;;;;;;;7.60;1.48;;;;;;;;;;5086233;28;20119;-80
2022/08/27 08:38:13;;;;;;;8.55;2.00;;;;;;;;;;5087292;28;20059;-81
2022/08/27 08:40:43;;;;;;;7.18;1.60;;;;;;;;;;5084062;28;20079;-81
2022/08/27 08:43:19;;;;;;;9.30;1.90;;;;;;;;;;5086188;28;20071;-81
2022/08/27 08:45:45;;;;;;;12.32;2.20;;;;;;;;;;5086941;28;20041;-81
2022/08/27 08:48:14;;;;;;;7.95;1.75;;;;;;;;;;5083583;28;20486;-81
2022/08/27 08:50:49;;;;;;;11.18;2.10;;;;;;;;;;5084865;28;20045;-81
2022/08/27 08:53:28;;;;;;;8.20;2.08;;;;;;;;;;5083719;28;20036;-81
2022/08/27 08:55:55;;;;;;;8.60;1.63;;;;;;;;;;5069012;28;20052;-80
2022/08/27 08:58:45;;;;;;;11.32;1.73;;;;;;;;;;5086573;28;20055;-81
2022/08/27 09:01:13;;;;;;;8.45;1.63;;;;;;;;;;5084787;28;20120;-80
2022/08/27 09:03:40;;;;;;;8.27;1.50;;;;;;;;;;5085413;28;20044;-81
2022/08/27 09:06:08;;;;;;;7.38;1.77;;;;;;;;;;5083286;28;20036;-81
2022/08/27 09:08:36;;;;;;;9.75;1.65;;;;;;;;;;5083871;28;20066;-79
2022/08/27 09:11:06;;;;;;;7.03;1.67;;;;;;;;;;5085221;28;20036;-80
2022/08/27 09:13:34;;;;;;;7.68;1.50;;;;;;;;;;5088697;28;20132;-80
2022/08/27 09:16:02;;;;;;;8.13;1.38;;;;;;;;;;5089648;28;20080;-81
2022/08/27 09:18:28;;;;;;;7.88;1.73;;;;;;;;;;5069705;28;20075;-80
2022/08/27 09:20:59;;;;;;;7.18;1.38;;;;;;;;;;5080943;28;20070;-79
2022/08/27 09:23:56;;;;;;;7.20;1.45;;;;;;;;;;5061960;28;20041;-80
2022/08/27 09:26:24;;;;;;;11.38;1.90;;;;;;;;;;5060019;28;20053;-80
2022/08/27 09:29:14;;;;;;;6.70;1.40;;;;;;;;;;5069841;28;20044;-79
2022/08/27 09:31:41;;;;;;;5.97;1.23;;;;;;;;;;5083656;28;20053;-81
2022/08/27 09:34:07;;;;;;;8.27;1.45;;;;;;;;;;5084098;28;20055;-81
2022/08/27 09:36:33;;;;;;;7.57;1.52;;;;;;;;;;5080410;28;20040;-81
2022/08/27 09:39:01;;;;;;;10.73;1.70;;;;;;;;;;5083102;28;20044;-81
2022/08/27 09:41:29;;;;;;;10.13;1.90;;;;;;;;;;5081976;28;20040;-80
2022/08/27 09:43:58;;;;;;;7.85;1.77;;;;;;;;;;5081822;28;20044;-81
2022/08/27 09:46:25;;;;;;;10.18;1.77;;;;;;;;;;5079208;28;20043;-80
2022/08/27 09:48:51;;;;;;;10.57;2.10;;;;;;;;;;5086651;28;20047;-79
2022/08/27 09:51:24;;;;;;;8.30;1.77;;;;;;;;;;5090004;28;20049;-80
2022/08/27 09:53:52;;;;;;;9.65;1.63;;;;;;;;;;5098711;28;20043;-79
2022/08/27 09:56:26;;;;;;;10.70;1.70;;;;;;;;;;5097921;28;20054;-79
2022/08/27 09:59:00;;;;;;;11.30;1.80;;;;;;;;;;5071286;28;20057;-79
2022/08/27 10:01:28;;;;;;;9.73;2.00;;;;;;;;;;5093497;28;20355;-78
2022/08/27 10:04:05;;;;;;;6.90;1.60;;;;;;;;;;5093304;28;20049;-79
2022/08/27 10:06:31;;;;;;;10.43;1.58;;;;;;;;;;5091236;28;20049;-79
2022/08/27 10:09:02;;;;;;;8.57;1.60;;;;;;;;;;5071334;28;20351;-79
2022/08/27 10:11:34;;;;;;;9.07;1.58;;;;;;;;;;5091109;28;20078;-79
2022/08/27 10:14:11;;;;;;;6.93;1.60;;;;;;;;;;5093937;28;20057;-78
2022/08/27 10:16:51;;;;;;;8.88;1.83;;;;;;;;;;5094116;28;20032;-79
2022/08/27 10:19:36;;;;;;;9.57;1.60;;;;;;;;;;5089913;28;20135;-79
2022/08/27 10:22:11;;;;;;;8.90;1.67;;;;;;;;;;5073750;28;20036;-79
2022/08/27 10:24:54;;;;;;;9.35;1.50;;;;;;;;;;5090467;28;20053;-80
2022/08/27 10:27:26;;;;;;;9.25;1.55;;;;;;;;;;5090862;28;20502;-81
2022/08/27 10:29:53;;;;;;;13.60;1.98;;;;;;;;;;5053175;28;20052;-79
2022/08/27 10:32:28;;;;;;;7.63;2.00;;;;;;;;;;5093570;28;20079;-79
2022/08/27 10:35:08;;;;;;;8.35;1.75;;;;;;;;;;5069689;28;20052;-80
2022/08/27 10:37:51;;;;;;;11.57;1.80;;;;;;;;;;5091239;28;20060;-79
2022/08/27 10:40:36;;;;;;;8.90;1.70;;;;;;;;;;5071414;28;20337;-80
2022/08/27 10:43:13;;;;;;;11.57;1.70;;;;;;;;;;5090132;28;20457;-79
2022/08/27 10:45:50;;;;;;;9.80;1.92;;;;;;;;;;5089091;28;20051;-78
2022/08/27 10:48:23;;;;;;;8.63;1.65;;;;;;;;;;5062559;28;20467;-79
2022/08/27 10:50:53;;;;;;;12.30;1.77;;;;;;;;;;5088688;28;20052;-79
2022/08/27 10:53:30;;;;;;;9.00;1.35;;;;;;;;;;5085350;28;20075;-78
2022/08/27 10:56:19;;;;;;;7.68;1.50;;;;;;;;;;5066001;28;20059;-79
2022/08/27 10:58:53;;;;;;;10.48;1.80;;;;;;;;;;5078772;28;20059;-78
2022/08/27 11:01:38;;;;;;;10.02;1.98;;;;;;;;;;5072707;28;20059;-80
2022/08/27 11:04:10;;;;;;;9.20;1.40;;;;;;;;;;5068671;28;20139;-80
2022/08/27 11:06:36;;;;;;;10.70;2.10;;;;;;;;;;5070258;28;20483;-80
2022/08/27 11:09:09;;;;;;;7.18;1.60;;;;;;;;;;5086721;28;20087;-79
2022/08/27 11:12:02;;;;;;;9.73;2.13;;;;;;;;;;5083197;28;20056;-81
2022/08/27 11:14:36;;;;;;;12.95;1.88;;;;;;;;;;5084638;28;20052;-80
2022/08/27 11:17:17;;;;;;;8.43;1.83;;;;;;;;;;5090923;28;20048;-78
2022/08/27 11:19:46;;;;;;;7.75;1.80;;;;;;;;;;5088161;28;20047;-81
2022/08/27 11:22:31;;;;;;;8.05;1.50;;;;;;;;;;5089178;28;20037;-80
2022/08/27 11:25:20;;;;;;;8.43;1.45;;;;;;;;;;5067728;28;20067;-79
2022/08/27 11:27:47;;;;;;;13.27;2.10;;;;;;;;;;4974184;28;20074;-80
2022/08/27 11:30:16;;;;;;;6.18;1.20;;;;;;;;;;4988659;28;20063;-80
2022/08/27 11:32:42;;;;;;;8.68;1.63;;;;;;;;;;4989758;28;20059;-81
2022/08/27 11:35:16;;;;;;;8.48;1.65;;;;;;;;;;4990451;28;20045;-80
2022/08/27 11:37:51;;;;;;;10.43;1.65;;;;;;;;;;4989170;28;20515;-80
2022/08/27 11:40:17;;;;;;;8.25;1.65;;;;;;;;;;4990063;28;20070;-80
2022/08/27 11:42:47;;;;;;;7.50;1.42;;;;;;;;;;4991538;28;20102;-79
2022/08/27 11:45:17;;;;;;;7.05;1.30;;;;;;;;;;4993379;28;20055;-80
2022/08/27 11:47:54;;;;;;;8.40;1.75;;;;;;;;;;4993631;28;20039;-81
2022/08/27 11:50:21;;;;;;;7.13;1.63;;;;;;;;;;4990930;28;20047;-80
2022/08/27 11:53:04;;;;;;;8.80;1.67;;;;;;;;;;4973130;28;20077;-83
2022/08/27 11:55:38;;;;;;;9.65;1.58;;;;;;;;;;4965588;28;20051;-82
2022/08/27 11:58:24;;;;;;;8.45;1.50;;;;;;;;;;4974334;28;20138;-83
2022/08/27 12:00:52;;;;;;;5.53;1.30;;;;;;;;;;4964690;28;20050;-81
2022/08/27 12:03:18;;;;;;;10.27;1.50;;;;;;;;;;4981925;28;20054;-82
2022/08/27 12:05:49;;;;;;;8.07;1.63;;;;;;;;;;5078069;28;20102;-80
2022/08/27 12:08:21;;;;;;;8.40;1.67;;;;;;;;;;5089466;28;20041;-78
2022/08/27 12:11:06;;;;;;;6.30;1.55;;;;;;;;;;5095516;28;20040;-78
2022/08/27 12:13:36;;;;;;;10.00;1.58;;;;;;;;;;5095165;28;20044;-78
2022/08/27 12:16:11;;;;;;;8.13;1.45;;;;;;;;;;5093991;28;20049;-78
2022/08/27 12:18:37;;;;;;;9.45;1.80;;;;;;;;;;5091920;28;20067;-79
2022/08/27 12:21:10;;;;;;;9.43;1.90;;;;;;;;;;5091218;28;20066;-80
2022/08/27 12:23:54;;;;;;;7.85;1.80;;;;;;;;;;5091321;28;20047;-80
2022/08/27 12:26:28;;;;;;;9.10;1.58;;;;;;;;;;5067256;28;20052;-81
2022/08/27 12:29:13;;;;;;;6.32;1.40;;;;;;;;;;5095205;28;20100;-79
2022/08/27 12:31:42;;;;;;;10.15;1.80;;;;;;;;;;5093534;28;20130;-80
2022/08/27 12:34:14;;;;;;;8.43;1.95;;;;;;;;;;5096620;28;20135;-79
2022/08/27 12:36:40;;;;;;;9.68;1.73;;;;;;;;;;5097659;28;20024;-78
2022/08/27 12:39:11;;;;;;;7.63;1.30;;;;;;;;;;5097762;28;20047;-79
2022/08/27 12:41:38;;;;;;;7.22;1.48;;;;;;;;;;5063120;28;20044;-80
2022/08/27 12:44:08;;;;;;;7.32;1.30;;;;;;;;;;5096416;28;20096;-79
2022/08/27 12:46:45;;;;;;;8.63;1.58;;;;;;;;;;5097513;28;20047;-79
2022/08/27 12:49:14;;;;;;;7.18;1.52;;;;;;;;;;5074756;28;20036;-79
2022/08/27 12:51:40;;;;;;;7.65;1.48;;;;;;;;;;5096042;28;20072;-78
2022/08/27 12:54:07;;;;;;;10.20;1.40;;;;;;;;;;5096223;28;20039;-81
2022/08/27 12:56:39;;;;;;;8.32;1.23;;;;;;;;;;5094671;28;20024;-78
2022/08/27 12:59:20;;;;;;;10.82;1.48;;;;;;;;;;5096996;28;20052;-79
2022/08/27 13:01:54;;;;;;;7.80;1.45;;;;;;;;;;5096082;28;20024;-79
2022/08/27 13:04:22;;;;;;;8.05;1.33;;;;;;;;;;5096112;28;20097;-77
2022/08/27 13:06:48;;;;;;;5.95;1.30;;;;;;;;;;5097005;28;20033;-78
2022/08/27 13:09:14;;;;;;;7.20;1.33;;;;;;;;;;5074873;28;20052;-78
2022/08/27 13:11:45;;;;;;;8.40;1.70;;;;;;;;;;5095915;28;20044;-79
2022/08/27 13:14:15;;;;;;;5.60;1.35;;;;;;;;;;5091436;28;20048;-78
2022/08/27 13:17:04;;;;;;;8.10;1.55;;;;;;;;;;5079041;28;20055;-78
2022/08/27 13:19:43;;;;;;;8.63;1.48;;;;;;;;;;5096438;28;20072;-79
2022/08/27 13:22:09;;;;;;;6.68;1.38;;;;;;;;;;5094280;28;20045;-80
2022/08/27 13:24:43;;;;;;;7.07;1.48;;;;;;;;;;5096676;28;20036;-80
2022/08/27 13:27:10;;;;;;;8.60;1.40;;;;;;;;;;5094174;28;20040;-80
2022/08/27 13:29:36;;;;;;;9.30;1.70;;;;;;;;;;5082964;28;20054;-79
2022/08/27 13:32:02;;;;;;;10.60;1.25;;;;;;;;;;5094365;28;20037;-79
2022/08/27 13:34:31;;;;;;;8.90;1.40;;;;;;;;;;5078408;28;20055;-79
2022/08/27 13:37:03;;;;;;;8.52;1.50;;;;;;;;;;5095591;28;20164;-79
2022/08/27 13:39:29;;;;;;;7.07;1.30;;;;;;;;;;5078364;28;20072;-81
2022/08/27 13:41:58;;;;;;;6.68;1.35;;;;;;;;;;5079138;28;20088;-79
2022/08/27 13:44:26;;;;;;;8.63;1.40;;;;;;;;;;5077833;28;20032;-80
2022/08/27 13:46:59;;;;;;;7.63;1.58;;;;;;;;;;5094456;28;20967;-79
2022/08/27 13:49:26;;;;;;;7.57;1.50;;;;;;;;;;5078915;28;20035;-79
2022/08/27 13:52:04;;;;;;;10.20;1.50;;;;;;;;;;5095573;28;20056;-78
2022/08/27 13:54:32;;;;;;;8.25;1.40;;;;;;;;;;5092804;28;20078;-80
2022/08/27 13:57:07;;;;;;;7.55;1.42;;;;;;;;;;5092814;28;20068;-79
2022/08/27 13:59:34;;;;;;;7.30;1.48;;;;;;;;;;5072216;28;20131;-80
2022/08/27 14:02:00;;;;;;;6.85;1.20;;;;;;;;;;5093425;28;20044;-79
2022/08/27 14:04:38;;;;;;;5.82;1.20;;;;;;;;;;5090707;28;20032;-80
2022/08/27 14:07:09;;;;;;;7.63;1.58;;;;;;;;;;5073410;28;20041;-80
2022/08/27 14:09:41;;;;;;;8.88;1.70;;;;;;;;;;5073922;28;20059;-80
2022/08/27 14:12:09;;;;;;;9.00;1.83;;;;;;;;;;5088793;28;20048;-81
2022/08/27 14:14:36;;;;;;;6.47;1.30;;;;;;;;;;5086481;28;20067;-82
2022/08/27 14:17:03;;;;;;;8.85;1.30;;;;;;;;;;5090341;28;20024;-80
2022/08/27 14:19:31;;;;;;;6.97;1.25;;;;;;;;;;5077023;28;20068;-80
2022/08/27 14:21:57;;;;;;;6.13;1.15;;;;;;;;;;5095874;28;20035;-80
2022/08/27 14:24:23;;;;;;;9.30;1.50;;;;;;;;;;5094072;28;20053;-80
2022/08/27 14:26:54;;;;;;;6.10;1.50;;;;;;;;;;5092756;28;20068;-81
2022/08/27 14:29:20;;;;;;;6.22;1.30;;;;;;;;;;5089187;28;20048;-81
2022/08/27 14:31:47;;;;;;;7.45;1.30;;;;;;;;;;5093078;28;20032;-81
2022/08/27 14:34:13;;;;;;;6.60;1.00;;;;;;;;;;5090143;28;20020;-80
2022/08/27 14:36:41;;;;;;;9.43;1.33;;;;;;;;;;5058458;28;20104;-79
2022/08/27 14:39:07;;;;;;;11.38;1.60;;;;;;;;;;5098539;28;20048;-80
2022/08/27 14:41:33;;;;;;;8.25;1.40;;;;;;;;;;5096541;28;20068;-79
2022/08/27 14:44:00;;;;;;;8.55;1.40;;;;;;;;;;5079117;28;20079;-78
2022/08/27 14:46:28;;;;;;;8.10;1.20;;;;;;;;;;5094509;28;20086;-81
2022/08/27 14:48:54;;;;;;;8.32;1.95;;;;;;;;;;5094142;28;20036;-80
2022/08/27 14:51:25;;;;;;;7.50;1.60;;;;;;;;;;5091392;28;20100;-79
2022/08/27 14:53:51;;;;;;;7.35;1.38;;;;;;;;;;5093501;28;20036;-79
2022/08/27 14:56:18;;;;;;;9.25;1.30;;;;;;;;;;5098086;28;20033;-79
2022/08/27 14:58:44;;;;;;;7.50;1.60;;;;;;;;;;5099022;28;20068;-79